sensor_id;sensor_type;location;lat;lon;timestamp;P1;durP1;ratioP1;P2;durP2;ratioP2
46006;SDS011;31738;50.188;8.524;2023-03-01T00:01:08;25.30;;;12.80;;
46006;SDS011;31738;50.188;8.524;2023-03-01T00:03:35;18.65;;;9.38;;
46006;SDS011;31738;50.188;8.524;2023-03-01T00:06:01;23.38;;;12.50;;
46006;SDS011;31738;50.188;8.524;2023-03-01T00:08:27;20.02;;;11.52;;
46006;SDS011;31738;50.188;8.524;2023-03-01T00:11:03;23.92;;;12.20;;
46006;SDS011;31738;50.188;8.524;2023-03-01T00:13:31;23.27;;;12.02;;
46006;SDS011;31738;50.188;8.524;2023-03-01T00:15:57;25.20;;;12.88;;
46006;SDS011;31738;50.188;8.524;2023-03-01T00:18:23;22.60;;;11.77;;
46006;SDS011;31738;50.188;8.524;2023-03-01T00:20:52;21.73;;;11.85;;
46006;SDS011;31738;50.188;8.524;2023-03-01T00:23:19;24.77;;;11.85;;
46006;SDS011;31738;50.188;8.524;2023-03-01T00:25:45;25.80;;;12.75;;
46006;SDS011;31738;50.188;8.524;2023-03-01T00:28:11;22.50;;;12.48;;
46006;SDS011;31738;50.188;8.524;2023-03-01T00:30:36;30.25;;;14.40;;
46006;SDS011;31738;50.188;8.524;2023-03-01T00:33:02;24.58;;;11.65;;
46006;SDS011;31738;50.188;8.524;2023-03-01T00:35:27;23.45;;;12.23;;
46006;SDS011;31738;50.188;8.524;2023-03-01T00:37:53;24.90;;;12.77;;
46006;SDS011;31738;50.188;8.524;2023-03-01T00:40:26;23.52;;;11.90;;
46006;SDS011;31738;50.188;8.524;2023-03-01T00:42:53;25.70;;;12.75;;
46006;SDS011;31738;50.188;8.524;2023-03-01T00:45:19;22.77;;;13.00;;
46006;SDS011;31738;50.188;8.524;2023-03-01T00:47:44;26.10;;;12.27;;
46006;SDS011;31738;50.188;8.524;2023-03-01T00:50:10;25.27;;;13.80;;
46006;SDS011;31738;50.188;8.524;2023-03-01T00:52:36;27.35;;;12.43;;
46006;SDS011;31738;50.188;8.524;2023-03-01T00:55:04;24.83;;;13.25;;
46006;SDS011;31738;50.188;8.524;2023-03-01T00:57:30;31.65;;;12.77;;
46006;SDS011;31738;50.188;8.524;2023-03-01T00:59:56;23.80;;;12.90;;
46006;SDS011;31738;50.188;8.524;2023-03-01T01:02:22;26.85;;;13.30;;
46006;SDS011;31738;50.188;8.524;2023-03-01T01:04:47;27.98;;;13.85;;
46006;SDS011;31738;50.188;8.524;2023-03-01T01:07:13;26.52;;;13.77;;
46006;SDS011;31738;50.188;8.524;2023-03-01T01:09:40;27.63;;;13.45;;
46006;SDS011;31738;50.188;8.524;2023-03-01T01:12:06;25.40;;;13.35;;
46006;SDS011;31738;50.188;8.524;2023-03-01T01:14:33;25.88;;;12.63;;
46006;SDS011;31738;50.188;8.524;2023-03-01T01:16:59;27.15;;;13.27;;
46006;SDS011;31738;50.188;8.524;2023-03-01T01:19:24;22.42;;;12.35;;
46006;SDS011;31738;50.188;8.524;2023-03-01T01:21:50;27.50;;;13.68;;
46006;SDS011;31738;50.188;8.524;2023-03-01T01:24:17;26.30;;;14.07;;
46006;SDS011;31738;50.188;8.524;2023-03-01T01:26:43;26.42;;;13.52;;
46006;SDS011;31738;50.188;8.524;2023-03-01T01:29:09;25.70;;;13.40;;
46006;SDS011;31738;50.188;8.524;2023-03-01T01:31:36;28.45;;;13.70;;
46006;SDS011;31738;50.188;8.524;2023-03-01T01:34:04;28.02;;;14.48;;
46006;SDS011;31738;50.188;8.524;2023-03-01T01:36:32;28.40;;;13.52;;
46006;SDS011;31738;50.188;8.524;2023-03-01T01:38:58;25.85;;;12.20;;
46006;SDS011;31738;50.188;8.524;2023-03-01T01:41:25;25.55;;;13.25;;
46006;SDS011;31738;50.188;8.524;2023-03-01T01:46:47;25.60;;;12.85;;
46006;SDS011;31738;50.188;8.524;2023-03-01T01:52:04;26.83;;;12.52;;
46006;SDS011;31738;50.188;8.524;2023-03-01T01:54:39;26.30;;;13.27;;
46006;SDS011;31738;50.188;8.524;2023-03-01T01:57:11;25.92;;;13.93;;
46006;SDS011;31738;50.188;8.524;2023-03-01T01:59:41;28.70;;;14.00;;
46006;SDS011;31738;50.188;8.524;2023-03-01T02:02:10;29.33;;;14.70;;
46006;SDS011;31738;50.188;8.524;2023-03-01T02:04:37;29.65;;;13.95;;
46006;SDS011;31738;50.188;8.524;2023-03-01T02:07:10;26.10;;;13.50;;
46006;SDS011;31738;50.188;8.524;2023-03-01T02:09:42;28.05;;;13.95;;
46006;SDS011;31738;50.188;8.524;2023-03-01T02:12:12;30.80;;;14.00;;
46006;SDS011;31738;50.188;8.524;2023-03-01T02:14:39;25.83;;;13.75;;
46006;SDS011;31738;50.188;8.524;2023-03-01T02:17:04;25.88;;;12.88;;
46006;SDS011;31738;50.188;8.524;2023-03-01T02:22:15;32.20;;;14.98;;
46006;SDS011;31738;50.188;8.524;2023-03-01T02:30:29;27.55;;;13.68;;
46006;SDS011;31738;50.188;8.524;2023-03-01T02:32:56;28.90;;;14.45;;
46006;SDS011;31738;50.188;8.524;2023-03-01T02:35:28;28.08;;;13.25;;
46006;SDS011;31738;50.188;8.524;2023-03-01T02:37:57;26.40;;;13.82;;
46006;SDS011;31738;50.188;8.524;2023-03-01T02:40:27;29.80;;;14.75;;
46006;SDS011;31738;50.188;8.524;2023-03-01T02:42:56;30.02;;;14.63;;
46006;SDS011;31738;50.188;8.524;2023-03-01T02:45:23;29.58;;;14.48;;
46006;SDS011;31738;50.188;8.524;2023-03-01T02:47:49;28.63;;;14.90;;
46006;SDS011;31738;50.188;8.524;2023-03-01T02:50:29;32.70;;;14.85;;
46006;SDS011;31738;50.188;8.524;2023-03-01T02:53:11;31.77;;;15.80;;
46006;SDS011;31738;50.188;8.524;2023-03-01T02:55:41;36.03;;;15.23;;
46006;SDS011;31738;50.188;8.524;2023-03-01T02:58:07;30.88;;;14.95;;
46006;SDS011;31738;50.188;8.524;2023-03-01T03:00:35;30.80;;;14.98;;
46006;SDS011;31738;50.188;8.524;2023-03-01T03:03:05;30.35;;;14.75;;
46006;SDS011;31738;50.188;8.524;2023-03-01T03:05:32;31.00;;;15.82;;
46006;SDS011;31738;50.188;8.524;2023-03-01T03:07:58;31.23;;;14.98;;
46006;SDS011;31738;50.188;8.524;2023-03-01T03:10:27;30.75;;;15.65;;
46006;SDS011;31738;50.188;8.524;2023-03-01T03:13:00;30.00;;;15.43;;
46006;SDS011;31738;50.188;8.524;2023-03-01T03:17:57;32.25;;;13.90;;
46006;SDS011;31738;50.188;8.524;2023-03-01T03:20:27;32.78;;;14.85;;
46006;SDS011;31738;50.188;8.524;2023-03-01T03:22:55;27.67;;;14.48;;
46006;SDS011;31738;50.188;8.524;2023-03-01T03:29:29;32.13;;;15.50;;
46006;SDS011;31738;50.188;8.524;2023-03-01T03:31:55;30.67;;;15.75;;
46006;SDS011;31738;50.188;8.524;2023-03-01T03:34:20;29.38;;;15.05;;
46006;SDS011;31738;50.188;8.524;2023-03-01T03:36:46;28.83;;;14.63;;
46006;SDS011;31738;50.188;8.524;2023-03-01T03:39:11;32.00;;;15.70;;
46006;SDS011;31738;50.188;8.524;2023-03-01T03:41:37;29.92;;;15.18;;
46006;SDS011;31738;50.188;8.524;2023-03-01T03:44:02;30.08;;;16.33;;
46006;SDS011;31738;50.188;8.524;2023-03-01T03:46:28;35.95;;;15.77;;
46006;SDS011;31738;50.188;8.524;2023-03-01T03:48:53;31.50;;;16.20;;
46006;SDS011;31738;50.188;8.524;2023-03-01T03:51:19;31.60;;;14.93;;
46006;SDS011;31738;50.188;8.524;2023-03-01T03:53:47;32.78;;;16.15;;
46006;SDS011;31738;50.188;8.524;2023-03-01T03:56:15;33.47;;;15.63;;
46006;SDS011;31738;50.188;8.524;2023-03-01T03:58:40;31.52;;;15.65;;
46006;SDS011;31738;50.188;8.524;2023-03-01T04:01:06;33.17;;;17.25;;
46006;SDS011;31738;50.188;8.524;2023-03-01T04:03:32;30.83;;;15.98;;
46006;SDS011;31738;50.188;8.524;2023-03-01T04:05:58;31.27;;;16.25;;
46006;SDS011;31738;50.188;8.524;2023-03-01T04:08:25;32.95;;;16.42;;
46006;SDS011;31738;50.188;8.524;2023-03-01T04:10:52;35.65;;;16.77;;
46006;SDS011;31738;50.188;8.524;2023-03-01T04:13:22;31.33;;;16.02;;
46006;SDS011;31738;50.188;8.524;2023-03-01T04:15:53;31.67;;;15.50;;
46006;SDS011;31738;50.188;8.524;2023-03-01T04:18:20;29.95;;;15.55;;
46006;SDS011;31738;50.188;8.524;2023-03-01T04:20:47;32.35;;;15.23;;
46006;SDS011;31738;50.188;8.524;2023-03-01T04:23:15;35.58;;;16.85;;
46006;SDS011;31738;50.188;8.524;2023-03-01T04:25:47;30.80;;;15.05;;
46006;SDS011;31738;50.188;8.524;2023-03-01T04:28:26;30.42;;;15.43;;
46006;SDS011;31738;50.188;8.524;2023-03-01T04:30:55;34.78;;;15.70;;
46006;SDS011;31738;50.188;8.524;2023-03-01T04:33:21;31.45;;;15.38;;
46006;SDS011;31738;50.188;8.524;2023-03-01T04:35:47;33.72;;;16.55;;
46006;SDS011;31738;50.188;8.524;2023-03-01T04:38:17;31.10;;;15.95;;
46006;SDS011;31738;50.188;8.524;2023-03-01T04:40:43;29.92;;;15.38;;
46006;SDS011;31738;50.188;8.524;2023-03-01T04:43:09;37.15;;;16.83;;
46006;SDS011;31738;50.188;8.524;2023-03-01T04:45:35;30.73;;;16.42;;
46006;SDS011;31738;50.188;8.524;2023-03-01T04:48:01;31.95;;;15.52;;
46006;SDS011;31738;50.188;8.524;2023-03-01T04:50:28;30.45;;;15.23;;
46006;SDS011;31738;50.188;8.524;2023-03-01T04:52:54;33.08;;;16.17;;
46006;SDS011;31738;50.188;8.524;2023-03-01T04:55:24;30.77;;;16.10;;
46006;SDS011;31738;50.188;8.524;2023-03-01T04:57:53;34.30;;;16.27;;
46006;SDS011;31738;50.188;8.524;2023-03-01T05:00:19;32.17;;;15.50;;
46006;SDS011;31738;50.188;8.524;2023-03-01T05:02:46;28.75;;;15.23;;
46006;SDS011;31738;50.188;8.524;2023-03-01T05:05:14;34.20;;;16.05;;
46006;SDS011;31738;50.188;8.524;2023-03-01T05:07:40;29.70;;;15.55;;
46006;SDS011;31738;50.188;8.524;2023-03-01T05:10:06;33.25;;;15.93;;
46006;SDS011;31738;50.188;8.524;2023-03-01T05:12:31;37.83;;;16.80;;
46006;SDS011;31738;50.188;8.524;2023-03-01T05:14:57;30.63;;;16.25;;
46006;SDS011;31738;50.188;8.524;2023-03-01T05:17:23;30.77;;;15.77;;
46006;SDS011;31738;50.188;8.524;2023-03-01T05:19:49;37.70;;;16.80;;
46006;SDS011;31738;50.188;8.524;2023-03-01T05:22:15;28.40;;;15.02;;
46006;SDS011;31738;50.188;8.524;2023-03-01T05:24:40;34.75;;;16.08;;
46006;SDS011;31738;50.188;8.524;2023-03-01T05:27:06;34.00;;;15.40;;
46006;SDS011;31738;50.188;8.524;2023-03-01T05:29:31;29.50;;;15.07;;
46006;SDS011;31738;50.188;8.524;2023-03-01T05:32:00;34.60;;;16.48;;
46006;SDS011;31738;50.188;8.524;2023-03-01T05:34:28;31.10;;;15.38;;
46006;SDS011;31738;50.188;8.524;2023-03-01T05:36:59;31.38;;;15.93;;
46006;SDS011;31738;50.188;8.524;2023-03-01T05:39:26;30.85;;;15.98;;
46006;SDS011;31738;50.188;8.524;2023-03-01T05:41:55;31.90;;;15.60;;
46006;SDS011;31738;50.188;8.524;2023-03-01T05:44:23;31.75;;;15.15;;
46006;SDS011;31738;50.188;8.524;2023-03-01T05:46:49;29.88;;;14.80;;
46006;SDS011;31738;50.188;8.524;2023-03-01T05:49:15;33.63;;;15.85;;
46006;SDS011;31738;50.188;8.524;2023-03-01T05:51:41;29.30;;;15.20;;
46006;SDS011;31738;50.188;8.524;2023-03-01T05:54:08;28.10;;;14.98;;
46006;SDS011;31738;50.188;8.524;2023-03-01T05:56:34;31.90;;;13.57;;
46006;SDS011;31738;50.188;8.524;2023-03-01T05:59:01;32.58;;;15.43;;
46006;SDS011;31738;50.188;8.524;2023-03-01T06:01:28;29.35;;;15.38;;
46006;SDS011;31738;50.188;8.524;2023-03-01T06:03:54;27.08;;;14.40;;
46006;SDS011;31738;50.188;8.524;2023-03-01T06:06:21;28.60;;;14.77;;
46006;SDS011;31738;50.188;8.524;2023-03-01T06:08:49;30.50;;;15.27;;
46006;SDS011;31738;50.188;8.524;2023-03-01T06:11:15;28.45;;;14.27;;
46006;SDS011;31738;50.188;8.524;2023-03-01T06:13:41;33.42;;;15.05;;
46006;SDS011;31738;50.188;8.524;2023-03-01T06:16:07;28.60;;;14.40;;
46006;SDS011;31738;50.188;8.524;2023-03-01T06:18:33;27.58;;;14.48;;
46006;SDS011;31738;50.188;8.524;2023-03-01T06:20:59;30.27;;;15.35;;
46006;SDS011;31738;50.188;8.524;2023-03-01T06:23:24;31.40;;;15.13;;
46006;SDS011;31738;50.188;8.524;2023-03-01T06:25:51;27.13;;;14.43;;
46006;SDS011;31738;50.188;8.524;2023-03-01T06:28:17;32.63;;;14.98;;
46006;SDS011;31738;50.188;8.524;2023-03-01T06:30:42;29.13;;;15.30;;
46006;SDS011;31738;50.188;8.524;2023-03-01T06:33:08;30.40;;;14.85;;
46006;SDS011;31738;50.188;8.524;2023-03-01T06:35:33;28.45;;;14.40;;
46006;SDS011;31738;50.188;8.524;2023-03-01T06:38:00;27.33;;;14.18;;
46006;SDS011;31738;50.188;8.524;2023-03-01T06:40:28;30.15;;;14.00;;
46006;SDS011;31738;50.188;8.524;2023-03-01T06:42:54;29.15;;;14.85;;
46006;SDS011;31738;50.188;8.524;2023-03-01T06:45:20;29.65;;;14.50;;
46006;SDS011;31738;50.188;8.524;2023-03-01T06:47:46;32.00;;;14.68;;
46006;SDS011;31738;50.188;8.524;2023-03-01T06:50:12;25.98;;;14.38;;
46006;SDS011;31738;50.188;8.524;2023-03-01T06:52:39;29.40;;;14.25;;
46006;SDS011;31738;50.188;8.524;2023-03-01T06:55:04;28.70;;;14.57;;
46006;SDS011;31738;50.188;8.524;2023-03-01T06:57:30;29.13;;;13.73;;
46006;SDS011;31738;50.188;8.524;2023-03-01T06:59:56;25.92;;;14.30;;
46006;SDS011;31738;50.188;8.524;2023-03-01T07:02:21;29.17;;;13.95;;
46006;SDS011;31738;50.188;8.524;2023-03-01T07:04:48;30.90;;;14.90;;
46006;SDS011;31738;50.188;8.524;2023-03-01T07:07:14;27.05;;;14.07;;
46006;SDS011;31738;50.188;8.524;2023-03-01T07:09:40;27.90;;;14.07;;
46006;SDS011;31738;50.188;8.524;2023-03-01T07:12:05;27.10;;;14.10;;
46006;SDS011;31738;50.188;8.524;2023-03-01T07:14:31;25.10;;;13.85;;
46006;SDS011;31738;50.188;8.524;2023-03-01T07:16:57;27.10;;;14.82;;
46006;SDS011;31738;50.188;8.524;2023-03-01T07:19:22;30.42;;;14.43;;
46006;SDS011;31738;50.188;8.524;2023-03-01T07:21:48;25.25;;;14.13;;
46006;SDS011;31738;50.188;8.524;2023-03-01T07:24:13;28.73;;;15.40;;
46006;SDS011;31738;50.188;8.524;2023-03-01T07:26:39;25.42;;;13.88;;
46006;SDS011;31738;50.188;8.524;2023-03-01T07:29:05;28.52;;;13.70;;
46006;SDS011;31738;50.188;8.524;2023-03-01T07:31:32;24.55;;;11.73;;
46006;SDS011;31738;50.188;8.524;2023-03-01T07:33:58;29.33;;;14.00;;
46006;SDS011;31738;50.188;8.524;2023-03-01T07:36:24;30.40;;;14.80;;
46006;SDS011;31738;50.188;8.524;2023-03-01T07:38:50;31.55;;;15.55;;
46006;SDS011;31738;50.188;8.524;2023-03-01T07:41:16;31.15;;;14.25;;
46006;SDS011;31738;50.188;8.524;2023-03-01T07:43:41;26.63;;;13.57;;
46006;SDS011;31738;50.188;8.524;2023-03-01T07:46:06;25.50;;;13.98;;
46006;SDS011;31738;50.188;8.524;2023-03-01T07:48:32;27.80;;;14.32;;
46006;SDS011;31738;50.188;8.524;2023-03-01T07:50:59;26.80;;;13.70;;
46006;SDS011;31738;50.188;8.524;2023-03-01T07:53:28;26.10;;;13.13;;
46006;SDS011;31738;50.188;8.524;2023-03-01T07:56:01;30.10;;;13.82;;
46006;SDS011;31738;50.188;8.524;2023-03-01T07:58:30;28.83;;;14.00;;
46006;SDS011;31738;50.188;8.524;2023-03-01T08:00:57;29.45;;;14.63;;
46006;SDS011;31738;50.188;8.524;2023-03-01T08:03:26;32.83;;;15.20;;
46006;SDS011;31738;50.188;8.524;2023-03-01T08:05:52;25.73;;;13.38;;
46006;SDS011;31738;50.188;8.524;2023-03-01T08:08:17;29.67;;;15.57;;
46006;SDS011;31738;50.188;8.524;2023-03-01T08:10:43;32.40;;;14.13;;
46006;SDS011;31738;50.188;8.524;2023-03-01T08:13:08;26.58;;;13.95;;
46006;SDS011;31738;50.188;8.524;2023-03-01T08:15:33;29.90;;;15.02;;
46006;SDS011;31738;50.188;8.524;2023-03-01T08:17:59;29.80;;;14.05;;
46006;SDS011;31738;50.188;8.524;2023-03-01T08:20:24;21.73;;;10.02;;
46006;SDS011;31738;50.188;8.524;2023-03-01T08:22:50;28.50;;;14.43;;
46006;SDS011;31738;50.188;8.524;2023-03-01T08:25:15;28.52;;;14.80;;
46006;SDS011;31738;50.188;8.524;2023-03-01T08:27:41;29.85;;;15.15;;
46006;SDS011;31738;50.188;8.524;2023-03-01T08:30:06;32.67;;;15.27;;
46006;SDS011;31738;50.188;8.524;2023-03-01T08:32:39;28.88;;;15.00;;
46006;SDS011;31738;50.188;8.524;2023-03-01T08:35:04;31.88;;;14.95;;
46006;SDS011;31738;50.188;8.524;2023-03-01T08:37:30;30.20;;;14.95;;
46006;SDS011;31738;50.188;8.524;2023-03-01T08:39:58;31.25;;;15.35;;
46006;SDS011;31738;50.188;8.524;2023-03-01T08:42:25;26.98;;;14.57;;
46006;SDS011;31738;50.188;8.524;2023-03-01T08:44:51;26.33;;;14.98;;
46006;SDS011;31738;50.188;8.524;2023-03-01T08:47:16;34.05;;;15.98;;
46006;SDS011;31738;50.188;8.524;2023-03-01T08:49:42;29.23;;;15.73;;
46006;SDS011;31738;50.188;8.524;2023-03-01T08:52:07;27.80;;;15.23;;
46006;SDS011;31738;50.188;8.524;2023-03-01T08:54:33;31.38;;;15.77;;
46006;SDS011;31738;50.188;8.524;2023-03-01T08:57:00;30.75;;;16.10;;
46006;SDS011;31738;50.188;8.524;2023-03-01T08:59:26;31.70;;;15.68;;
46006;SDS011;31738;50.188;8.524;2023-03-01T09:01:53;29.83;;;15.70;;
46006;SDS011;31738;50.188;8.524;2023-03-01T09:04:19;33.33;;;16.00;;
46006;SDS011;31738;50.188;8.524;2023-03-01T09:06:44;32.45;;;15.95;;
46006;SDS011;31738;50.188;8.524;2023-03-01T09:09:19;31.42;;;15.82;;
46006;SDS011;31738;50.188;8.524;2023-03-01T09:11:44;26.48;;;14.25;;
46006;SDS011;31738;50.188;8.524;2023-03-01T09:14:15;27.63;;;14.57;;
46006;SDS011;31738;50.188;8.524;2023-03-01T09:16:41;28.20;;;15.07;;
46006;SDS011;31738;50.188;8.524;2023-03-01T09:19:06;28.42;;;15.40;;
46006;SDS011;31738;50.188;8.524;2023-03-01T09:21:32;24.90;;;13.05;;
46006;SDS011;31738;50.188;8.524;2023-03-01T09:23:57;26.52;;;14.90;;
46006;SDS011;31738;50.188;8.524;2023-03-01T09:26:24;26.60;;;14.35;;
46006;SDS011;31738;50.188;8.524;2023-03-01T09:28:51;33.33;;;15.15;;
46006;SDS011;31738;50.188;8.524;2023-03-01T09:31:19;28.70;;;15.60;;
46006;SDS011;31738;50.188;8.524;2023-03-01T09:33:46;26.30;;;13.35;;
46006;SDS011;31738;50.188;8.524;2023-03-01T09:36:14;30.10;;;15.70;;
46006;SDS011;31738;50.188;8.524;2023-03-01T09:38:42;29.70;;;14.85;;
46006;SDS011;31738;50.188;8.524;2023-03-01T09:41:26;30.42;;;15.55;;
46006;SDS011;31738;50.188;8.524;2023-03-01T09:47:01;27.73;;;15.73;;
46006;SDS011;31738;50.188;8.524;2023-03-01T09:49:28;29.60;;;16.17;;
46006;SDS011;31738;50.188;8.524;2023-03-01T09:51:57;26.77;;;14.38;;
46006;SDS011;31738;50.188;8.524;2023-03-01T09:54:44;27.52;;;14.93;;
46006;SDS011;31738;50.188;8.524;2023-03-01T10:10:28;29.77;;;15.20;;
46006;SDS011;31738;50.188;8.524;2023-03-01T10:12:59;26.65;;;15.05;;
46006;SDS011;31738;50.188;8.524;2023-03-01T10:15:37;29.38;;;16.00;;
46006;SDS011;31738;50.188;8.524;2023-03-01T10:18:12;25.83;;;15.20;;
46006;SDS011;31738;50.188;8.524;2023-03-01T10:23:18;27.23;;;15.57;;
46006;SDS011;31738;50.188;8.524;2023-03-01T10:25:47;28.33;;;14.45;;
46006;SDS011;31738;50.188;8.524;2023-03-01T10:31:17;27.05;;;14.75;;
46006;SDS011;31738;50.188;8.524;2023-03-01T10:33:45;27.55;;;14.40;;
46006;SDS011;31738;50.188;8.524;2023-03-01T10:36:13;28.08;;;15.05;;
46006;SDS011;31738;50.188;8.524;2023-03-01T10:38:49;27.23;;;14.85;;
46006;SDS011;31738;50.188;8.524;2023-03-01T10:41:19;30.58;;;15.25;;
46006;SDS011;31738;50.188;8.524;2023-03-01T10:46:28;26.92;;;14.43;;
46006;SDS011;31738;50.188;8.524;2023-03-01T10:51:31;24.13;;;14.50;;
46006;SDS011;31738;50.188;8.524;2023-03-01T10:53:57;25.33;;;14.43;;
46006;SDS011;31738;50.188;8.524;2023-03-01T10:56:23;26.40;;;14.73;;
46006;SDS011;31738;50.188;8.524;2023-03-01T11:01:25;24.88;;;14.07;;
46006;SDS011;31738;50.188;8.524;2023-03-01T11:06:36;24.02;;;13.77;;
46006;SDS011;31738;50.188;8.524;2023-03-01T11:09:17;26.95;;;13.65;;
46006;SDS011;31738;50.188;8.524;2023-03-01T11:11:54;25.88;;;14.15;;
46006;SDS011;31738;50.188;8.524;2023-03-01T11:14:21;26.33;;;14.10;;
46006;SDS011;31738;50.188;8.524;2023-03-01T11:16:59;22.38;;;13.43;;
46006;SDS011;31738;50.188;8.524;2023-03-01T11:19:27;23.48;;;13.45;;
46006;SDS011;31738;50.188;8.524;2023-03-01T11:21:55;25.15;;;13.93;;
46006;SDS011;31738;50.188;8.524;2023-03-01T11:24:36;25.20;;;13.75;;
46006;SDS011;31738;50.188;8.524;2023-03-01T11:27:10;23.42;;;13.75;;
46006;SDS011;31738;50.188;8.524;2023-03-01T11:29:43;22.33;;;13.10;;
46006;SDS011;31738;50.188;8.524;2023-03-01T11:32:16;25.48;;;12.93;;
46006;SDS011;31738;50.188;8.524;2023-03-01T11:34:47;23.10;;;13.45;;
46006;SDS011;31738;50.188;8.524;2023-03-01T11:39:52;23.67;;;13.27;;
46006;SDS011;31738;50.188;8.524;2023-03-01T11:45:12;21.55;;;12.85;;
46006;SDS011;31738;50.188;8.524;2023-03-01T11:50:26;21.08;;;12.65;;
46006;SDS011;31738;50.188;8.524;2023-03-01T11:56:23;21.98;;;12.30;;
46006;SDS011;31738;50.188;8.524;2023-03-01T11:59:08;19.40;;;12.55;;
46006;SDS011;31738;50.188;8.524;2023-03-01T12:01:54;22.08;;;12.13;;
46006;SDS011;31738;50.188;8.524;2023-03-01T12:04:32;19.90;;;11.77;;
46006;SDS011;31738;50.188;8.524;2023-03-01T12:12:43;21.98;;;12.02;;
46006;SDS011;31738;50.188;8.524;2023-03-01T12:17:57;20.92;;;12.02;;
46006;SDS011;31738;50.188;8.524;2023-03-01T12:20:36;19.55;;;12.55;;
46006;SDS011;31738;50.188;8.524;2023-03-01T12:23:16;20.67;;;12.45;;
46006;SDS011;31738;50.188;8.524;2023-03-01T12:26:01;23.85;;;12.52;;
46006;SDS011;31738;50.188;8.524;2023-03-01T12:47:47;18.88;;;11.60;;
46006;SDS011;31738;50.188;8.524;2023-03-01T12:50:24;21.63;;;10.98;;
46006;SDS011;31738;50.188;8.524;2023-03-01T12:52:56;17.25;;;10.60;;
46006;SDS011;31738;50.188;8.524;2023-03-01T12:55:29;21.15;;;11.27;;
46006;SDS011;31738;50.188;8.524;2023-03-01T12:58:01;21.27;;;11.35;;
46006;SDS011;31738;50.188;8.524;2023-03-01T13:00:40;18.73;;;10.90;;
46006;SDS011;31738;50.188;8.524;2023-03-01T13:06:14;19.38;;;11.50;;
46006;SDS011;31738;50.188;8.524;2023-03-01T13:08:49;18.63;;;11.25;;
46006;SDS011;31738;50.188;8.524;2023-03-01T13:11:25;20.58;;;11.70;;
46006;SDS011;31738;50.188;8.524;2023-03-01T13:13:51;19.08;;;11.07;;
46006;SDS011;31738;50.188;8.524;2023-03-01T13:19:16;18.67;;;11.50;;
46006;SDS011;31738;50.188;8.524;2023-03-01T13:21:44;19.50;;;11.60;;
46006;SDS011;31738;50.188;8.524;2023-03-01T13:24:27;17.67;;;10.63;;
46006;SDS011;31738;50.188;8.524;2023-03-01T13:32:24;16.40;;;9.88;;
46006;SDS011;31738;50.188;8.524;2023-03-01T13:37:44;20.70;;;11.73;;
46006;SDS011;31738;50.188;8.524;2023-03-01T13:42:44;20.52;;;11.15;;
46006;SDS011;31738;50.188;8.524;2023-03-01T13:47:42;21.08;;;11.70;;
46006;SDS011;31738;50.188;8.524;2023-03-01T13:50:32;22.73;;;12.35;;
46006;SDS011;31738;50.188;8.524;2023-03-01T13:53:03;21.48;;;11.10;;
46006;SDS011;31738;50.188;8.524;2023-03-01T13:55:36;19.15;;;10.63;;
46006;SDS011;31738;50.188;8.524;2023-03-01T13:58:20;17.92;;;11.23;;
46006;SDS011;31738;50.188;8.524;2023-03-01T14:00:46;19.48;;;11.43;;
46006;SDS011;31738;50.188;8.524;2023-03-01T14:05:57;19.83;;;11.10;;
46006;SDS011;31738;50.188;8.524;2023-03-01T14:08:26;21.25;;;10.65;;
46006;SDS011;31738;50.188;8.524;2023-03-01T14:10:54;19.17;;;11.10;;
46006;SDS011;31738;50.188;8.524;2023-03-01T14:19:27;17.67;;;10.23;;
46006;SDS011;31738;50.188;8.524;2023-03-01T14:24:49;18.17;;;10.30;;
46006;SDS011;31738;50.188;8.524;2023-03-01T14:27:17;17.20;;;10.57;;
46006;SDS011;31738;50.188;8.524;2023-03-01T14:29:43;19.95;;;10.50;;
46006;SDS011;31738;50.188;8.524;2023-03-01T14:34:49;18.25;;;9.68;;
46006;SDS011;31738;50.188;8.524;2023-03-01T14:37:29;22.73;;;10.70;;
46006;SDS011;31738;50.188;8.524;2023-03-01T14:39:57;19.08;;;9.45;;
46006;SDS011;31738;50.188;8.524;2023-03-01T14:42:25;18.98;;;10.02;;
46006;SDS011;31738;50.188;8.524;2023-03-01T14:44:55;18.02;;;10.70;;
46006;SDS011;31738;50.188;8.524;2023-03-01T14:47:29;14.40;;;9.13;;
46006;SDS011;31738;50.188;8.524;2023-03-01T14:50:02;18.38;;;10.85;;
46006;SDS011;31738;50.188;8.524;2023-03-01T14:52:34;18.23;;;9.95;;
46006;SDS011;31738;50.188;8.524;2023-03-01T14:55:05;17.45;;;10.23;;
46006;SDS011;31738;50.188;8.524;2023-03-01T14:57:43;18.80;;;10.02;;
46006;SDS011;31738;50.188;8.524;2023-03-01T15:00:15;21.00;;;10.73;;
46006;SDS011;31738;50.188;8.524;2023-03-01T15:02:53;19.90;;;11.40;;
46006;SDS011;31738;50.188;8.524;2023-03-01T15:05:25;16.05;;;8.90;;
46006;SDS011;31738;50.188;8.524;2023-03-01T15:07:55;17.42;;;9.93;;
46006;SDS011;31738;50.188;8.524;2023-03-01T15:10:28;19.90;;;10.40;;
46006;SDS011;31738;50.188;8.524;2023-03-01T15:12:56;16.52;;;9.98;;
46006;SDS011;31738;50.188;8.524;2023-03-01T15:15:36;15.27;;;8.82;;
46006;SDS011;31738;50.188;8.524;2023-03-01T15:20:40;17.42;;;9.90;;
46006;SDS011;31738;50.188;8.524;2023-03-01T15:23:12;23.50;;;10.25;;
46006;SDS011;31738;50.188;8.524;2023-03-01T15:26:38;16.90;;;9.48;;
46006;SDS011;31738;50.188;8.524;2023-03-01T15:29:10;18.27;;;9.70;;
46006;SDS011;31738;50.188;8.524;2023-03-01T15:31:41;17.10;;;10.15;;
46006;SDS011;31738;50.188;8.524;2023-03-01T15:34:21;16.65;;;10.00;;
46006;SDS011;31738;50.188;8.524;2023-03-01T15:36:49;17.80;;;10.10;;
46006;SDS011;31738;50.188;8.524;2023-03-01T15:39:26;19.67;;;10.27;;
46006;SDS011;31738;50.188;8.524;2023-03-01T15:41:52;20.88;;;10.07;;
46006;SDS011;31738;50.188;8.524;2023-03-01T15:44:31;18.80;;;10.23;;
46006;SDS011;31738;50.188;8.524;2023-03-01T15:46:58;20.55;;;10.75;;
46006;SDS011;31738;50.188;8.524;2023-03-01T15:49:33;20.45;;;10.55;;
46006;SDS011;31738;50.188;8.524;2023-03-01T15:52:21;17.92;;;10.70;;
46006;SDS011;31738;50.188;8.524;2023-03-01T15:55:00;19.48;;;10.05;;
46006;SDS011;31738;50.188;8.524;2023-03-01T15:57:27;19.40;;;10.13;;
46006;SDS011;31738;50.188;8.524;2023-03-01T15:59:53;17.92;;;9.80;;
46006;SDS011;31738;50.188;8.524;2023-03-01T16:02:21;18.65;;;10.48;;
46006;SDS011;31738;50.188;8.524;2023-03-01T16:04:48;19.60;;;9.90;;
46006;SDS011;31738;50.188;8.524;2023-03-01T16:07:14;15.32;;;9.10;;
46006;SDS011;31738;50.188;8.524;2023-03-01T16:09:40;18.52;;;9.60;;
46006;SDS011;31738;50.188;8.524;2023-03-01T16:12:08;21.55;;;10.65;;
46006;SDS011;31738;50.188;8.524;2023-03-01T16:17:07;16.67;;;9.68;;
46006;SDS011;31738;50.188;8.524;2023-03-01T16:19:35;18.23;;;9.82;;
46006;SDS011;31738;50.188;8.524;2023-03-01T16:22:02;20.23;;;10.90;;
46006;SDS011;31738;50.188;8.524;2023-03-01T16:24:28;17.20;;;9.27;;
46006;SDS011;31738;50.188;8.524;2023-03-01T16:26:55;17.75;;;9.50;;
46006;SDS011;31738;50.188;8.524;2023-03-01T16:29:20;16.67;;;9.32;;
46006;SDS011;31738;50.188;8.524;2023-03-01T16:31:46;17.85;;;9.77;;
46006;SDS011;31738;50.188;8.524;2023-03-01T16:34:15;14.75;;;9.50;;
46006;SDS011;31738;50.188;8.524;2023-03-01T16:36:50;17.50;;;9.70;;
46006;SDS011;31738;50.188;8.524;2023-03-01T16:39:16;18.55;;;9.43;;
46006;SDS011;31738;50.188;8.524;2023-03-01T16:41:41;19.30;;;9.82;;
46006;SDS011;31738;50.188;8.524;2023-03-01T16:44:07;18.55;;;9.43;;